Ashton, Kansas
Current Conditions -  °F | °C
As of 1:54 PM on Thursday 30 Oct 2014 (Local Time) from KWLD Reporting Station
Clear Clear  
Wind Chill: 73°   Ceiling: Unl
Heat Index: 73°   Visibility: 10mi
Dew Point: 40°   Wind: 17mph
Humidity: 30%   Direction: 340°NNW
Pressure: 30.12"   Gusts: 30mph
Location:  37.0641°N, 97.2025°W
Report Text: KWLD 301854Z AUTO 34015G26KT 10SM CLR 23/04 A3012 RMK AO2 PK WND 35027/1824 SLP195 T02280044
Loading
Personal Weather Stations






























Interactive Weather Map
Tropical Storm Tracking
New forecast layout! Learn more

10-Day Weather Forecast

Advertisements
Track Severe Weather on mobile